IGO6409 VOHS-VISR
Flight info
| Callsign | IGO6409 |
|---|---|
| Flight time | 2h 43m |
| Altitude | 24000 |
| Route | NADEL5 BUSBO J3 TAMID/N0443F320 W20 UPTAR/N0381F240 J3 BPL/N0452F340 Q24 DPN J24 SAM J110 KIKED DCT ATNUS DCT MESAR |
| Aircraft | A20N/M-SDE2E3FGHIRWXY/LB1 |
Departure
| Time | 2026-04-29 08:56 |
|---|---|
| Airport | Rajiv Gandhi International Airport (VOHS) |
Arrival
| Time | 2026-04-29 11:39 |
|---|---|
| Airport | Sheikh ul Alam International Airport (VISR) |
| Time | Latitude | Longitude | Altitude | Speed | Heading |
|---|---|---|---|---|---|
| 2026-04-29 08:25 | 17.23404 | 78.42956 | 1999 ft | 0 kts | 360° |
| 2026-04-29 08:40 | 17.23400 | 78.42956 | 1999 ft | 2 kts | 0° |
| 2026-04-29 08:40 | 17.23386 | 78.42956 | 1999 ft | 2 kts | 359° |
| 2026-04-29 08:40 | 17.23372 | 78.42956 | 2000 ft | 2 kts | 359° |
| 2026-04-29 08:40 | 17.23355 | 78.42956 | 2000 ft | 2 kts | 359° |
| 2026-04-29 08:41 | 17.23342 | 78.42954 | 2000 ft | 2 kts | 35° |
| 2026-04-29 08:41 | 17.23332 | 78.42940 | 2000 ft | 2 kts | 75° |
| 2026-04-29 08:41 | 17.23331 | 78.42932 | 2000 ft | 1 kts | 96° |
| 2026-04-29 08:41 | 17.23331 | 78.42927 | 1999 ft | 0 kts | 89° |
| 2026-04-29 08:43 | 17.23331 | 78.42924 | 1999 ft | 0 kts | 90° |
| 2026-04-29 08:43 | 17.23331 | 78.42921 | 1999 ft | 0 kts | 91° |
| 2026-04-29 08:44 | 17.23331 | 78.42942 | 2000 ft | 4 kts | 89° |
| 2026-04-29 08:44 | 17.23334 | 78.42997 | 2002 ft | 9 kts | 86° |
| 2026-04-29 08:44 | 17.23340 | 78.43077 | 2005 ft | 12 kts | 88° |
| 2026-04-29 08:44 | 17.23334 | 78.43175 | 2008 ft | 14 kts | 97° |
| 2026-04-29 08:45 | 17.23326 | 78.43283 | 2008 ft | 14 kts | 89° |
| 2026-04-29 08:45 | 17.23333 | 78.43391 | 2009 ft | 14 kts | 84° |
| 2026-04-29 08:45 | 17.23340 | 78.43490 | 2011 ft | 13 kts | 87° |
| 2026-04-29 08:45 | 17.23342 | 78.43578 | 2014 ft | 11 kts | 90° |
| 2026-04-29 08:46 | 17.23340 | 78.43648 | 2016 ft | 8 kts | 94° |
| 2026-04-29 08:46 | 17.23321 | 78.43694 | 2018 ft | 5 kts | 148° |
| 2026-04-29 08:46 | 17.23285 | 78.43701 | 2019 ft | 4 kts | 175° |
| 2026-04-29 08:46 | 17.23250 | 78.43703 | 2020 ft | 5 kts | 177° |
| 2026-04-29 08:47 | 17.23219 | 78.43704 | 2021 ft | 5 kts | 178° |
| 2026-04-29 08:47 | 17.23182 | 78.43704 | 2022 ft | 6 kts | 180° |
| 2026-04-29 08:47 | 17.23128 | 78.43703 | 2023 ft | 7 kts | 183° |
| 2026-04-29 08:47 | 17.23099 | 78.43733 | 2024 ft | 6 kts | 101° |
| 2026-04-29 08:48 | 17.23097 | 78.43780 | 2025 ft | 7 kts | 88° |
| 2026-04-29 08:48 | 17.23098 | 78.43838 | 2027 ft | 8 kts | 88° |
| 2026-04-29 08:48 | 17.23098 | 78.43896 | 2029 ft | 9 kts | 92° |
| 2026-04-29 08:48 | 17.23091 | 78.43971 | 2031 ft | 11 kts | 97° |
| 2026-04-29 08:49 | 17.23093 | 78.44049 | 2033 ft | 11 kts | 84° |
| 2026-04-29 08:49 | 17.23098 | 78.44140 | 2036 ft | 13 kts | 89° |
| 2026-04-29 08:49 | 17.23097 | 78.44244 | 2037 ft | 15 kts | 97° |
| 2026-04-29 08:49 | 17.23014 | 78.44306 | 2038 ft | 17 kts | 172° |
| 2026-04-29 08:50 | 17.22908 | 78.44374 | 2035 ft | 21 kts | 102° |
| 2026-04-29 08:50 | 17.22905 | 78.44541 | 2035 ft | 23 kts | 91° |
| 2026-04-29 08:50 | 17.22906 | 78.44723 | 2034 ft | 26 kts | 90° |
| 2026-04-29 08:50 | 17.22908 | 78.44921 | 2031 ft | 27 kts | 90° |
| 2026-04-29 08:51 | 17.22909 | 78.45119 | 2026 ft | 27 kts | 89° |
| 2026-04-29 08:51 | 17.22971 | 78.45260 | 2023 ft | 8 kts | 57° |
| 2026-04-29 08:51 | 17.22974 | 78.45264 | 2023 ft | 0 kts | 57° |
| 2026-04-29 08:54 | 17.22974 | 78.45275 | 2022 ft | 3 kts | 111° |
| 2026-04-29 08:54 | 17.22945 | 78.45279 | 2023 ft | 6 kts | 209° |
| 2026-04-29 08:54 | 17.22915 | 78.45232 | 2024 ft | 9 kts | 257° |
| 2026-04-29 08:55 | 17.22913 | 78.45153 | 2026 ft | 12 kts | 271° |
| 2026-04-29 08:55 | 17.22912 | 78.44992 | 2029 ft | 46 kts | 269° |
| 2026-04-29 08:55 | 17.22904 | 78.44422 | 2035 ft | 106 kts | 272° |
| 2026-04-29 08:55 | 17.22899 | 78.43465 | 2015 ft | 156 kts | 268° |
| 2026-04-29 08:56 | 17.22885 | 78.42190 | 2100 ft | 186 kts | 271° |
| 2026-04-29 08:56 | 17.22896 | 78.40788 | 2375 ft | 202 kts | 271° |
| 2026-04-29 08:56 | 17.22910 | 78.39294 | 2873 ft | 210 kts | 270° |
| 2026-04-29 08:56 | 17.22879 | 78.37784 | 3534 ft | 210 kts | 269° |
| 2026-04-29 08:57 | 17.22838 | 78.36208 | 3936 ft | 226 kts | 269° |
| 2026-04-29 08:57 | 17.22797 | 78.34527 | 4202 ft | 236 kts | 269° |
| 2026-04-29 08:57 | 17.22850 | 78.32783 | 4419 ft | 248 kts | 278° |
| 2026-04-29 08:57 | 17.23205 | 78.30973 | 4648 ft | 260 kts | 286° |
| 2026-04-29 08:58 | 17.23739 | 78.29101 | 4879 ft | 273 kts | 288° |
| 2026-04-29 08:58 | 17.24309 | 78.27190 | 5231 ft | 280 kts | 288° |
| 2026-04-29 08:58 | 17.24886 | 78.25247 | 5721 ft | 283 kts | 288° |
| 2026-04-29 08:58 | 17.25462 | 78.23297 | 6235 ft | 285 kts | 288° |
| 2026-04-29 08:59 | 17.26049 | 78.21294 | 6772 ft | 286 kts | 288° |
| 2026-04-29 08:59 | 17.26629 | 78.19315 | 7331 ft | 288 kts | 288° |
| 2026-04-29 08:59 | 17.27221 | 78.17293 | 7910 ft | 290 kts | 287° |
| 2026-04-29 08:59 | 17.27806 | 78.15290 | 8501 ft | 292 kts | 287° |
| 2026-04-29 09:00 | 17.28396 | 78.13255 | 9118 ft | 294 kts | 288° |
| 2026-04-29 09:00 | 17.28995 | 78.11197 | 9738 ft | 296 kts | 288° |
| 2026-04-29 09:00 | 17.29596 | 78.09126 | 10291 ft | 301 kts | 288° |
| 2026-04-29 09:00 | 17.30221 | 78.06979 | 10580 ft | 317 kts | 288° |
| 2026-04-29 09:01 | 17.30879 | 78.04720 | 10849 ft | 333 kts | 288° |
| 2026-04-29 09:01 | 17.31564 | 78.02361 | 11210 ft | 345 kts | 288° |
| 2026-04-29 09:01 | 17.32267 | 77.99937 | 11793 ft | 349 kts | 288° |
| 2026-04-29 09:01 | 17.32968 | 77.97520 | 12426 ft | 351 kts | 288° |
| 2026-04-29 09:02 | 17.33683 | 77.95049 | 13061 ft | 354 kts | 288° |
| 2026-04-29 09:02 | 17.34400 | 77.92579 | 13676 ft | 356 kts | 288° |
| 2026-04-29 09:02 | 17.35115 | 77.90107 | 14291 ft | 358 kts | 288° |
| 2026-04-29 09:02 | 17.35835 | 77.87620 | 14905 ft | 360 kts | 288° |
| 2026-04-29 09:03 | 17.36562 | 77.85104 | 15508 ft | 362 kts | 288° |
| 2026-04-29 09:03 | 17.37290 | 77.82579 | 16099 ft | 364 kts | 288° |
| 2026-04-29 09:03 | 17.38031 | 77.80016 | 16669 ft | 366 kts | 288° |
| 2026-04-29 09:03 | 17.38765 | 77.77469 | 17236 ft | 368 kts | 288° |
| 2026-04-29 09:04 | 17.39510 | 77.74883 | 17777 ft | 371 kts | 288° |
| 2026-04-29 09:04 | 17.40249 | 77.72310 | 18339 ft | 373 kts | 288° |
| 2026-04-29 09:04 | 17.41003 | 77.69689 | 18916 ft | 374 kts | 288° |
| 2026-04-29 09:04 | 17.41747 | 77.67099 | 19449 ft | 376 kts | 288° |
| 2026-04-29 09:05 | 17.42506 | 77.64466 | 19984 ft | 378 kts | 288° |
| 2026-04-29 09:05 | 17.43392 | 77.61857 | 20481 ft | 380 kts | 298° |
| 2026-04-29 09:05 | 17.44888 | 77.59588 | 20983 ft | 381 kts | 313° |
| 2026-04-29 09:05 | 17.46918 | 77.57819 | 21501 ft | 382 kts | 326° |
| 2026-04-29 09:06 | 17.49178 | 77.56347 | 22007 ft | 384 kts | 328° |
| 2026-04-29 09:06 | 17.51473 | 77.54881 | 22486 ft | 387 kts | 328° |
| 2026-04-29 09:06 | 17.53811 | 77.53384 | 22846 ft | 393 kts | 328° |
| 2026-04-29 09:06 | 17.56145 | 77.51884 | 23246 ft | 396 kts | 327° |
| 2026-04-29 09:07 | 17.58524 | 77.50351 | 23696 ft | 399 kts | 327° |
| 2026-04-29 09:07 | 17.60888 | 77.48823 | 24110 ft | 401 kts | 327° |
| 2026-04-29 09:07 | 17.63274 | 77.47277 | 24498 ft | 404 kts | 327° |
| 2026-04-29 09:07 | 17.65659 | 77.45730 | 24870 ft | 406 kts | 327° |
| 2026-04-29 09:08 | 17.68096 | 77.44149 | 25254 ft | 408 kts | 327° |
| 2026-04-29 09:08 | 17.70524 | 77.42572 | 25633 ft | 410 kts | 326° |
| 2026-04-29 09:08 | 17.72967 | 77.40984 | 26007 ft | 411 kts | 326° |
| 2026-04-29 09:08 | 17.75391 | 77.39407 | 26381 ft | 412 kts | 326° |
| 2026-04-29 09:09 | 17.77863 | 77.37798 | 26720 ft | 414 kts | 326° |
| 2026-04-29 09:09 | 17.80312 | 77.36203 | 27040 ft | 416 kts | 326° |
| 2026-04-29 09:09 | 17.82766 | 77.34607 | 27365 ft | 418 kts | 325° |
| 2026-04-29 09:09 | 17.85377 | 77.33150 | 27717 ft | 422 kts | 334° |
| 2026-04-29 09:10 | 17.88181 | 77.32194 | 28068 ft | 428 kts | 343° |
| 2026-04-29 09:10 | 17.91148 | 77.31746 | 28484 ft | 431 kts | 352° |
| 2026-04-29 09:10 | 17.94133 | 77.31639 | 28921 ft | 431 kts | 353° |
| 2026-04-29 09:10 | 17.97147 | 77.31579 | 29301 ft | 431 kts | 354° |
| 2026-04-29 09:11 | 18.00141 | 77.31525 | 29688 ft | 429 kts | 354° |
| 2026-04-29 09:11 | 18.03141 | 77.31470 | 30077 ft | 428 kts | 354° |
| 2026-04-29 09:11 | 18.06126 | 77.31411 | 30470 ft | 426 kts | 354° |
| 2026-04-29 09:11 | 18.09070 | 77.31350 | 30853 ft | 424 kts | 354° |
| 2026-04-29 09:12 | 18.12033 | 77.31287 | 31212 ft | 422 kts | 354° |
| 2026-04-29 09:12 | 18.14962 | 77.31226 | 31571 ft | 420 kts | 354° |
| 2026-04-29 09:12 | 18.17879 | 77.31184 | 31903 ft | 420 kts | 356° |
| 2026-04-29 09:12 | 18.20822 | 77.31408 | 32186 ft | 424 kts | 2° |
| 2026-04-29 09:13 | 18.23770 | 77.31987 | 32450 ft | 428 kts | 9° |
| 2026-04-29 09:13 | 18.26619 | 77.32899 | 32702 ft | 433 kts | 15° |
| 2026-04-29 09:13 | 18.29427 | 77.34175 | 32952 ft | 439 kts | 22° |
| 2026-04-29 09:13 | 18.32057 | 77.35773 | 33236 ft | 443 kts | 28° |
| 2026-04-29 09:14 | 18.34588 | 77.37704 | 33553 ft | 445 kts | 32° |
| 2026-04-29 09:14 | 18.37009 | 77.39687 | 33802 ft | 446 kts | 33° |
| 2026-04-29 09:14 | 18.39440 | 77.41701 | 33816 ft | 445 kts | 33° |
| 2026-04-29 09:15 | 18.44338 | 77.45758 | 33815 ft | 444 kts | 33° |
| 2026-04-29 09:15 | 18.49197 | 77.49767 | 33811 ft | 445 kts | 33° |
| 2026-04-29 09:16 | 18.54081 | 77.53793 | 33805 ft | 445 kts | 33° |
| 2026-04-29 09:16 | 18.58977 | 77.57825 | 33800 ft | 446 kts | 32° |
| 2026-04-29 09:17 | 18.63844 | 77.61842 | 33795 ft | 446 kts | 32° |
| 2026-04-29 09:17 | 18.68743 | 77.65887 | 33793 ft | 445 kts | 33° |
| 2026-04-29 09:18 | 18.73609 | 77.69935 | 33789 ft | 445 kts | 33° |
| 2026-04-29 09:18 | 18.78478 | 77.73975 | 33784 ft | 446 kts | 32° |
| 2026-04-29 09:19 | 18.83360 | 77.78017 | 33776 ft | 445 kts | 33° |
| 2026-04-29 09:19 | 18.88219 | 77.82040 | 33776 ft | 445 kts | 32° |
| 2026-04-29 09:20 | 18.93110 | 77.86092 | 33771 ft | 446 kts | 32° |
| 2026-04-29 09:20 | 18.97997 | 77.90140 | 33765 ft | 446 kts | 32° |
| 2026-04-29 09:21 | 19.02891 | 77.94198 | 33766 ft | 445 kts | 32° |
| 2026-04-29 09:21 | 19.07768 | 77.98244 | 33774 ft | 446 kts | 32° |
| 2026-04-29 09:22 | 19.12663 | 78.02300 | 33784 ft | 446 kts | 32° |
| 2026-04-29 09:22 | 19.17560 | 78.06351 | 33787 ft | 446 kts | 31° |
| 2026-04-29 09:23 | 19.22894 | 78.09499 | 33782 ft | 432 kts | 15° |
| 2026-04-29 09:23 | 19.28662 | 78.10939 | 33786 ft | 421 kts | 360° |
| 2026-04-29 09:24 | 19.34432 | 78.10726 | 33789 ft | 412 kts | 347° |
| 2026-04-29 09:24 | 19.40091 | 78.09676 | 33788 ft | 413 kts | 345° |
| 2026-04-29 09:25 | 19.45774 | 78.08584 | 33782 ft | 413 kts | 345° |
| 2026-04-29 09:25 | 19.51421 | 78.07503 | 33785 ft | 413 kts | 346° |
| 2026-04-29 09:26 | 19.57093 | 78.06417 | 33783 ft | 412 kts | 345° |
| 2026-04-29 09:26 | 19.62761 | 78.05334 | 33777 ft | 412 kts | 346° |
| 2026-04-29 09:27 | 19.68397 | 78.04255 | 33771 ft | 413 kts | 345° |
| 2026-04-29 09:27 | 19.74066 | 78.03171 | 33769 ft | 413 kts | 345° |
| 2026-04-29 09:28 | 19.79742 | 78.02085 | 33766 ft | 412 kts | 345° |
| 2026-04-29 09:28 | 19.85405 | 78.00998 | 33763 ft | 413 kts | 346° |
| 2026-04-29 09:29 | 19.91057 | 77.99915 | 33764 ft | 412 kts | 345° |
| 2026-04-29 09:29 | 19.99529 | 77.98289 | 33758 ft | 411 kts | 345° |
| 2026-04-29 09:30 | 20.05207 | 77.97197 | 33764 ft | 411 kts | 345° |
| 2026-04-29 09:30 | 20.10823 | 77.96117 | 33774 ft | 411 kts | 345° |
| 2026-04-29 09:31 | 20.16491 | 77.95033 | 33778 ft | 412 kts | 346° |
| 2026-04-29 09:31 | 20.22129 | 77.93952 | 33783 ft | 412 kts | 346° |
| 2026-04-29 09:32 | 20.27795 | 77.92861 | 33782 ft | 411 kts | 346° |
| 2026-04-29 09:32 | 20.33408 | 77.91779 | 33784 ft | 411 kts | 346° |
| 2026-04-29 09:33 | 20.39072 | 77.90685 | 33784 ft | 411 kts | 346° |
| 2026-04-29 09:33 | 20.44710 | 77.89595 | 33781 ft | 411 kts | 346° |
| 2026-04-29 09:34 | 20.50332 | 77.88509 | 33777 ft | 411 kts | 346° |
| 2026-04-29 09:34 | 20.55976 | 77.87412 | 33769 ft | 410 kts | 346° |
| 2026-04-29 09:35 | 20.61572 | 77.86324 | 33763 ft | 410 kts | 346° |
| 2026-04-29 09:35 | 20.67225 | 77.85226 | 33760 ft | 411 kts | 346° |
| 2026-04-29 09:36 | 20.72836 | 77.84099 | 33753 ft | 410 kts | 345° |
| 2026-04-29 09:36 | 20.78445 | 77.82926 | 33752 ft | 410 kts | 345° |
| 2026-04-29 09:37 | 20.84061 | 77.81750 | 33751 ft | 409 kts | 345° |
| 2026-04-29 09:37 | 20.89655 | 77.80582 | 33750 ft | 410 kts | 345° |
| 2026-04-29 09:38 | 20.95277 | 77.79435 | 33750 ft | 410 kts | 346° |
| 2026-04-29 09:38 | 21.00903 | 77.78319 | 33750 ft | 410 kts | 346° |
| 2026-04-29 09:39 | 21.06525 | 77.77201 | 33751 ft | 409 kts | 346° |
| 2026-04-29 09:39 | 21.12126 | 77.76084 | 33754 ft | 408 kts | 346° |
| 2026-04-29 09:40 | 21.17707 | 77.74970 | 33757 ft | 408 kts | 346° |
| 2026-04-29 09:40 | 21.23322 | 77.73846 | 33771 ft | 408 kts | 346° |
| 2026-04-29 09:41 | 21.28903 | 77.72723 | 33778 ft | 407 kts | 346° |
| 2026-04-29 09:41 | 21.34499 | 77.71594 | 33797 ft | 407 kts | 346° |
| 2026-04-29 09:42 | 21.40064 | 77.70473 | 33824 ft | 407 kts | 346° |
| 2026-04-29 09:42 | 21.45637 | 77.69344 | 33858 ft | 406 kts | 346° |
| 2026-04-29 09:43 | 21.51177 | 77.68227 | 33884 ft | 405 kts | 346° |
| 2026-04-29 09:43 | 21.56729 | 77.67165 | 33888 ft | 405 kts | 347° |
| 2026-04-29 09:44 | 21.62328 | 77.66104 | 33879 ft | 405 kts | 346° |
| 2026-04-29 09:44 | 21.67871 | 77.65047 | 33866 ft | 403 kts | 346° |
| 2026-04-29 09:45 | 21.73393 | 77.63988 | 33851 ft | 404 kts | 346° |
| 2026-04-29 09:45 | 21.78931 | 77.62922 | 33842 ft | 403 kts | 346° |
| 2026-04-29 09:46 | 21.84463 | 77.61856 | 33843 ft | 404 kts | 346° |
| 2026-04-29 09:46 | 21.90008 | 77.60789 | 33845 ft | 403 kts | 346° |
| 2026-04-29 09:47 | 21.95577 | 77.59713 | 33849 ft | 402 kts | 346° |
| 2026-04-29 09:47 | 22.01080 | 77.58649 | 33854 ft | 403 kts | 346° |
| 2026-04-29 09:48 | 22.06611 | 77.57575 | 33847 ft | 403 kts | 346° |
| 2026-04-29 09:48 | 22.12169 | 77.56503 | 33833 ft | 402 kts | 346° |
| 2026-04-29 09:49 | 22.17674 | 77.55454 | 33819 ft | 402 kts | 346° |
| 2026-04-29 09:49 | 22.23214 | 77.54384 | 33806 ft | 401 kts | 346° |
| 2026-04-29 09:50 | 22.28704 | 77.53319 | 33790 ft | 401 kts | 346° |
| 2026-04-29 09:50 | 22.34226 | 77.52241 | 33781 ft | 402 kts | 346° |
| 2026-04-29 09:51 | 22.39743 | 77.51165 | 33772 ft | 402 kts | 346° |
| 2026-04-29 09:51 | 22.45247 | 77.50088 | 33766 ft | 401 kts | 346° |
| 2026-04-29 09:52 | 22.50752 | 77.49010 | 33756 ft | 401 kts | 346° |
| 2026-04-29 09:52 | 22.56262 | 77.47931 | 33754 ft | 400 kts | 346° |
| 2026-04-29 09:53 | 22.61745 | 77.46857 | 33758 ft | 400 kts | 346° |
| 2026-04-29 09:53 | 22.67231 | 77.45779 | 33764 ft | 401 kts | 346° |
| 2026-04-29 09:54 | 22.72719 | 77.44701 | 33769 ft | 400 kts | 346° |
| 2026-04-29 09:54 | 22.78235 | 77.43616 | 33775 ft | 400 kts | 346° |
| 2026-04-29 09:55 | 22.83701 | 77.42539 | 33782 ft | 399 kts | 346° |
| 2026-04-29 09:55 | 22.89192 | 77.41459 | 33783 ft | 398 kts | 346° |
| 2026-04-29 09:56 | 22.94643 | 77.40382 | 33781 ft | 399 kts | 346° |
| 2026-04-29 09:56 | 23.00106 | 77.39304 | 33787 ft | 399 kts | 346° |
| 2026-04-29 09:57 | 23.05599 | 77.38216 | 33787 ft | 398 kts | 346° |
| 2026-04-29 09:57 | 23.11048 | 77.37136 | 33783 ft | 398 kts | 346° |
| 2026-04-29 09:58 | 23.16495 | 77.36060 | 33782 ft | 398 kts | 346° |
| 2026-04-29 09:58 | 23.21952 | 77.34976 | 33780 ft | 398 kts | 346° |
| 2026-04-29 09:59 | 23.27445 | 77.33959 | 33776 ft | 399 kts | 348° |
| 2026-04-29 09:59 | 23.32985 | 77.33485 | 33775 ft | 402 kts | 352° |
| 2026-04-29 10:00 | 23.38607 | 77.33213 | 33774 ft | 402 kts | 352° |
| 2026-04-29 10:00 | 23.44171 | 77.32951 | 33774 ft | 402 kts | 352° |
| 2026-04-29 10:01 | 23.49801 | 77.32688 | 33777 ft | 402 kts | 352° |
| 2026-04-29 10:01 | 23.55385 | 77.32426 | 33778 ft | 402 kts | 352° |
| 2026-04-29 10:02 | 23.60871 | 77.32169 | 33771 ft | 402 kts | 352° |
| 2026-04-29 10:02 | 23.66486 | 77.31907 | 33764 ft | 401 kts | 352° |
| 2026-04-29 10:03 | 23.72077 | 77.31644 | 33759 ft | 401 kts | 352° |
| 2026-04-29 10:03 | 23.77622 | 77.31385 | 33762 ft | 401 kts | 352° |
| 2026-04-29 10:04 | 23.82959 | 77.31136 | 33760 ft | 402 kts | 352° |
| 2026-04-29 10:04 | 23.88584 | 77.30871 | 33763 ft | 401 kts | 352° |
| 2026-04-29 10:05 | 23.94187 | 77.30608 | 33759 ft | 402 kts | 352° |
| 2026-04-29 10:05 | 23.99770 | 77.30345 | 33756 ft | 401 kts | 352° |
| 2026-04-29 10:06 | 24.05363 | 77.30080 | 33757 ft | 401 kts | 352° |
| 2026-04-29 10:06 | 24.10971 | 77.29817 | 33764 ft | 401 kts | 352° |
| 2026-04-29 10:07 | 24.16535 | 77.29559 | 33764 ft | 400 kts | 352° |
| 2026-04-29 10:07 | 24.22127 | 77.29295 | 33769 ft | 400 kts | 352° |
| 2026-04-29 10:08 | 24.27712 | 77.29032 | 33762 ft | 401 kts | 352° |
| 2026-04-29 10:08 | 24.33325 | 77.28767 | 33767 ft | 400 kts | 352° |
| 2026-04-29 10:09 | 24.38899 | 77.28502 | 33757 ft | 402 kts | 352° |
| 2026-04-29 10:09 | 24.44503 | 77.28236 | 33757 ft | 401 kts | 352° |
| 2026-04-29 10:10 | 24.50120 | 77.27970 | 33746 ft | 402 kts | 352° |
| 2026-04-29 10:10 | 24.55698 | 77.27702 | 33746 ft | 401 kts | 352° |
| 2026-04-29 10:11 | 24.61313 | 77.27434 | 33746 ft | 402 kts | 352° |
| 2026-04-29 10:11 | 24.66893 | 77.27167 | 33749 ft | 401 kts | 352° |
| 2026-04-29 10:12 | 24.72506 | 77.26907 | 33747 ft | 401 kts | 352° |
| 2026-04-29 10:12 | 24.78082 | 77.26676 | 33740 ft | 402 kts | 352° |
| 2026-04-29 10:13 | 24.83683 | 77.26440 | 33737 ft | 402 kts | 352° |
| 2026-04-29 10:13 | 24.89302 | 77.26199 | 33720 ft | 401 kts | 352° |
| 2026-04-29 10:14 | 24.94901 | 77.25957 | 33719 ft | 402 kts | 352° |
| 2026-04-29 10:14 | 25.00512 | 77.25717 | 33705 ft | 403 kts | 352° |
| 2026-04-29 10:15 | 25.06105 | 77.25517 | 33702 ft | 402 kts | 352° |
| 2026-04-29 10:15 | 25.11713 | 77.25320 | 33707 ft | 403 kts | 353° |
| 2026-04-29 10:16 | 25.17329 | 77.25125 | 33699 ft | 403 kts | 352° |
| 2026-04-29 10:16 | 25.22963 | 77.24922 | 33686 ft | 402 kts | 353° |
| 2026-04-29 10:17 | 25.28565 | 77.24719 | 33692 ft | 402 kts | 353° |
| 2026-04-29 10:17 | 25.34170 | 77.24515 | 33696 ft | 404 kts | 353° |
| 2026-04-29 10:18 | 25.39820 | 77.24310 | 33700 ft | 404 kts | 353° |
| 2026-04-29 10:18 | 25.45418 | 77.24105 | 33702 ft | 405 kts | 352° |
| 2026-04-29 10:19 | 25.51073 | 77.23900 | 33699 ft | 405 kts | 352° |
| 2026-04-29 10:19 | 25.56723 | 77.23693 | 33696 ft | 405 kts | 352° |
| 2026-04-29 10:20 | 25.62365 | 77.23486 | 33686 ft | 406 kts | 352° |
| 2026-04-29 10:20 | 25.68019 | 77.23280 | 33685 ft | 406 kts | 352° |
| 2026-04-29 10:21 | 25.73655 | 77.23071 | 33679 ft | 406 kts | 352° |
| 2026-04-29 10:21 | 25.79327 | 77.22865 | 33667 ft | 406 kts | 352° |
| 2026-04-29 10:22 | 25.85002 | 77.22654 | 33650 ft | 406 kts | 352° |
| 2026-04-29 10:22 | 25.90668 | 77.22445 | 33662 ft | 407 kts | 353° |
| 2026-04-29 10:23 | 25.96341 | 77.22237 | 33667 ft | 406 kts | 352° |
| 2026-04-29 10:23 | 26.01989 | 77.22026 | 33685 ft | 408 kts | 352° |
| 2026-04-29 10:24 | 26.07672 | 77.21814 | 33670 ft | 407 kts | 353° |
| 2026-04-29 10:24 | 26.13382 | 77.21603 | 33663 ft | 409 kts | 352° |
| 2026-04-29 10:25 | 26.19078 | 77.21347 | 33658 ft | 408 kts | 352° |
| 2026-04-29 10:25 | 26.24746 | 77.21058 | 33641 ft | 408 kts | 352° |
| 2026-04-29 10:26 | 26.30437 | 77.20763 | 33643 ft | 409 kts | 352° |
| 2026-04-29 10:26 | 26.36165 | 77.20468 | 33634 ft | 410 kts | 352° |
| 2026-04-29 10:27 | 26.44674 | 77.19898 | 33634 ft | 404 kts | 345° |
| 2026-04-29 10:28 | 26.50123 | 77.18413 | 33646 ft | 402 kts | 341° |
| 2026-04-29 10:28 | 26.55540 | 77.16799 | 33635 ft | 403 kts | 341° |
| 2026-04-29 10:29 | 26.60938 | 77.15196 | 33643 ft | 403 kts | 341° |
| 2026-04-29 10:29 | 26.66376 | 77.13588 | 33639 ft | 404 kts | 341° |
| 2026-04-29 10:30 | 26.71827 | 77.11971 | 33634 ft | 404 kts | 341° |
| 2026-04-29 10:30 | 26.77275 | 77.10358 | 33644 ft | 404 kts | 341° |
| 2026-04-29 10:31 | 26.82719 | 77.08746 | 33626 ft | 405 kts | 341° |
| 2026-04-29 10:31 | 26.88164 | 77.07134 | 33644 ft | 405 kts | 341° |
| 2026-04-29 10:32 | 26.93655 | 77.05503 | 33646 ft | 405 kts | 341° |
| 2026-04-29 10:32 | 26.99104 | 77.03883 | 33660 ft | 405 kts | 341° |
| 2026-04-29 10:33 | 27.04588 | 77.02251 | 33641 ft | 405 kts | 341° |
| 2026-04-29 10:33 | 27.10061 | 77.00623 | 33642 ft | 406 kts | 341° |
| 2026-04-29 10:34 | 27.15508 | 76.99007 | 33655 ft | 405 kts | 341° |
| 2026-04-29 10:34 | 27.21009 | 76.97375 | 33647 ft | 406 kts | 341° |
| 2026-04-29 10:35 | 27.26465 | 76.95748 | 33641 ft | 406 kts | 341° |
| 2026-04-29 10:35 | 27.31936 | 76.94116 | 33645 ft | 407 kts | 341° |
| 2026-04-29 10:36 | 27.37400 | 76.92483 | 33645 ft | 406 kts | 341° |
| 2026-04-29 10:36 | 27.42865 | 76.90844 | 33650 ft | 405 kts | 341° |
| 2026-04-29 10:37 | 27.48327 | 76.89207 | 33651 ft | 406 kts | 341° |
| 2026-04-29 10:37 | 27.53783 | 76.87569 | 33647 ft | 406 kts | 341° |
| 2026-04-29 10:38 | 27.59292 | 76.85913 | 33648 ft | 406 kts | 341° |
| 2026-04-29 10:38 | 27.64733 | 76.84278 | 33652 ft | 407 kts | 341° |
| 2026-04-29 10:39 | 27.70238 | 76.82619 | 33667 ft | 408 kts | 341° |
| 2026-04-29 10:39 | 27.75697 | 76.80975 | 33665 ft | 408 kts | 341° |
| 2026-04-29 10:40 | 27.81181 | 76.79320 | 33674 ft | 408 kts | 341° |
| 2026-04-29 10:40 | 27.86674 | 76.77660 | 33671 ft | 408 kts | 341° |
| 2026-04-29 10:41 | 27.92183 | 76.75996 | 33671 ft | 409 kts | 341° |
| 2026-04-29 10:41 | 27.97723 | 76.74318 | 33671 ft | 409 kts | 341° |
| 2026-04-29 10:42 | 28.03227 | 76.72652 | 33675 ft | 409 kts | 341° |
| 2026-04-29 10:42 | 28.08727 | 76.70984 | 33679 ft | 410 kts | 341° |
| 2026-04-29 10:43 | 28.14266 | 76.69307 | 33680 ft | 411 kts | 341° |
| 2026-04-29 10:43 | 28.19783 | 76.67641 | 33686 ft | 411 kts | 341° |
| 2026-04-29 10:44 | 28.25352 | 76.65949 | 33679 ft | 413 kts | 341° |
| 2026-04-29 10:44 | 28.30914 | 76.64259 | 33667 ft | 414 kts | 341° |
| 2026-04-29 10:45 | 28.36469 | 76.62564 | 33672 ft | 414 kts | 341° |
| 2026-04-29 10:45 | 28.42053 | 76.60859 | 33655 ft | 413 kts | 341° |
| 2026-04-29 10:46 | 28.47621 | 76.59158 | 33665 ft | 415 kts | 341° |
| 2026-04-29 10:46 | 28.53190 | 76.57454 | 33666 ft | 416 kts | 341° |
| 2026-04-29 10:47 | 28.58789 | 76.55737 | 33662 ft | 416 kts | 341° |
| 2026-04-29 10:47 | 28.64417 | 76.54012 | 33672 ft | 418 kts | 341° |
| 2026-04-29 10:48 | 28.70023 | 76.52291 | 33670 ft | 419 kts | 341° |
| 2026-04-29 10:48 | 28.75687 | 76.50552 | 33669 ft | 419 kts | 341° |
| 2026-04-29 10:49 | 28.81301 | 76.48824 | 33665 ft | 418 kts | 341° |
| 2026-04-29 10:49 | 28.86947 | 76.47084 | 33672 ft | 420 kts | 341° |
| 2026-04-29 10:50 | 28.92613 | 76.45339 | 33666 ft | 421 kts | 341° |
| 2026-04-29 10:50 | 28.98248 | 76.43600 | 33673 ft | 422 kts | 341° |
| 2026-04-29 10:51 | 29.03933 | 76.41841 | 33664 ft | 422 kts | 341° |
| 2026-04-29 10:51 | 29.09587 | 76.40095 | 33663 ft | 422 kts | 341° |
| 2026-04-29 10:52 | 29.15252 | 76.38349 | 33665 ft | 422 kts | 341° |
| 2026-04-29 10:52 | 29.20925 | 76.36598 | 33646 ft | 422 kts | 341° |
| 2026-04-29 10:53 | 29.26616 | 76.34834 | 33659 ft | 422 kts | 341° |
| 2026-04-29 10:53 | 29.32306 | 76.33041 | 33659 ft | 423 kts | 340° |
| 2026-04-29 10:54 | 29.37952 | 76.31266 | 33662 ft | 421 kts | 340° |
| 2026-04-29 10:54 | 29.43639 | 76.29485 | 33648 ft | 422 kts | 341° |
| 2026-04-29 10:55 | 29.49299 | 76.27719 | 33646 ft | 421 kts | 341° |
| 2026-04-29 10:55 | 29.54949 | 76.25954 | 33650 ft | 422 kts | 341° |
| 2026-04-29 10:56 | 29.60630 | 76.24176 | 33649 ft | 422 kts | 341° |
| 2026-04-29 10:56 | 29.66298 | 76.22404 | 33645 ft | 423 kts | 341° |
| 2026-04-29 10:57 | 29.71985 | 76.20622 | 33637 ft | 423 kts | 341° |
| 2026-04-29 10:57 | 29.78062 | 76.18714 | 33652 ft | 421 kts | 341° |
| 2026-04-29 10:58 | 29.83740 | 76.16932 | 33643 ft | 422 kts | 341° |
| 2026-04-29 10:58 | 29.89435 | 76.15142 | 33629 ft | 422 kts | 341° |
| 2026-04-29 10:59 | 29.95107 | 76.13355 | 33629 ft | 423 kts | 341° |
| 2026-04-29 10:59 | 30.00791 | 76.11564 | 33634 ft | 422 kts | 341° |
| 2026-04-29 11:00 | 30.06454 | 76.09776 | 33568 ft | 422 kts | 341° |
| 2026-04-29 11:00 | 30.12124 | 76.07986 | 33623 ft | 423 kts | 341° |
| 2026-04-29 11:01 | 30.17808 | 76.06200 | 33641 ft | 422 kts | 341° |
| 2026-04-29 11:01 | 30.23466 | 76.04413 | 33644 ft | 421 kts | 341° |
| 2026-04-29 11:02 | 30.29147 | 76.02614 | 33639 ft | 421 kts | 341° |
| 2026-04-29 11:02 | 30.34809 | 76.00817 | 33633 ft | 420 kts | 341° |
| 2026-04-29 11:03 | 30.40447 | 75.99026 | 33637 ft | 420 kts | 341° |
| 2026-04-29 11:03 | 30.46119 | 75.97220 | 33647 ft | 421 kts | 341° |
| 2026-04-29 11:04 | 30.51778 | 75.95418 | 33637 ft | 420 kts | 341° |
| 2026-04-29 11:04 | 30.57438 | 75.93610 | 33646 ft | 420 kts | 341° |
| 2026-04-29 11:05 | 30.63096 | 75.91802 | 33653 ft | 420 kts | 341° |
| 2026-04-29 11:05 | 30.68733 | 75.90001 | 33639 ft | 420 kts | 341° |
| 2026-04-29 11:06 | 30.74435 | 75.88176 | 33661 ft | 420 kts | 341° |
| 2026-04-29 11:06 | 30.80066 | 75.86369 | 33668 ft | 421 kts | 341° |
| 2026-04-29 11:07 | 30.85759 | 75.84540 | 33655 ft | 421 kts | 341° |
| 2026-04-29 11:07 | 30.91399 | 75.82729 | 33651 ft | 421 kts | 341° |
| 2026-04-29 11:08 | 30.97062 | 75.80907 | 33654 ft | 422 kts | 341° |
| 2026-04-29 11:08 | 31.02739 | 75.79078 | 33647 ft | 422 kts | 341° |
| 2026-04-29 11:09 | 31.08419 | 75.77247 | 33645 ft | 421 kts | 341° |
| 2026-04-29 11:09 | 31.14047 | 75.75432 | 33651 ft | 421 kts | 341° |
| 2026-04-29 11:10 | 31.19710 | 75.73609 | 33654 ft | 422 kts | 341° |
| 2026-04-29 11:10 | 31.25372 | 75.71780 | 33655 ft | 423 kts | 341° |
| 2026-04-29 11:11 | 31.31063 | 75.69936 | 33646 ft | 423 kts | 341° |
| 2026-04-29 11:11 | 31.36739 | 75.68092 | 33660 ft | 424 kts | 341° |
| 2026-04-29 11:12 | 31.42422 | 75.66243 | 33661 ft | 425 kts | 341° |
| 2026-04-29 11:12 | 31.48120 | 75.64389 | 33656 ft | 424 kts | 341° |
| 2026-04-29 11:13 | 31.53814 | 75.62533 | 33655 ft | 424 kts | 341° |
| 2026-04-29 11:13 | 31.59511 | 75.60672 | 33677 ft | 423 kts | 341° |
| 2026-04-29 11:14 | 31.65183 | 75.58814 | 33682 ft | 424 kts | 342° |
| 2026-04-29 11:14 | 31.70899 | 75.56938 | 33682 ft | 425 kts | 341° |
| 2026-04-29 11:15 | 31.76582 | 75.55069 | 33683 ft | 425 kts | 342° |
| 2026-04-29 11:15 | 31.82273 | 75.53201 | 33682 ft | 425 kts | 342° |
| 2026-04-29 11:16 | 31.88087 | 75.51757 | 33678 ft | 427 kts | 349° |
| 2026-04-29 11:16 | 31.94029 | 75.51072 | 33681 ft | 430 kts | 354° |
| 2026-04-29 11:17 | 32.00028 | 75.50807 | 33691 ft | 430 kts | 355° |
| 2026-04-29 11:17 | 32.05987 | 75.50565 | 33682 ft | 431 kts | 355° |
| 2026-04-29 11:18 | 32.12007 | 75.50314 | 33700 ft | 432 kts | 355° |
| 2026-04-29 11:18 | 32.18057 | 75.50063 | 33700 ft | 432 kts | 355° |
| 2026-04-29 11:19 | 32.24072 | 75.49806 | 33699 ft | 432 kts | 355° |
| 2026-04-29 11:19 | 32.30130 | 75.49546 | 33746 ft | 433 kts | 355° |
| 2026-04-29 11:20 | 32.36177 | 75.49290 | 33781 ft | 433 kts | 355° |
| 2026-04-29 11:20 | 32.39177 | 75.49161 | 33631 ft | 434 kts | 355° |
| 2026-04-29 11:20 | 32.42210 | 75.49028 | 33337 ft | 433 kts | 356° |
| 2026-04-29 11:20 | 32.45214 | 75.48898 | 32802 ft | 433 kts | 356° |
| 2026-04-29 11:21 | 32.48226 | 75.48769 | 32188 ft | 434 kts | 356° |
| 2026-04-29 11:21 | 32.51244 | 75.48640 | 31558 ft | 435 kts | 356° |
| 2026-04-29 11:21 | 32.54282 | 75.48509 | 30908 ft | 436 kts | 356° |
| 2026-04-29 11:21 | 32.57301 | 75.48377 | 30277 ft | 436 kts | 356° |
| 2026-04-29 11:22 | 32.60337 | 75.48241 | 29625 ft | 437 kts | 356° |
| 2026-04-29 11:22 | 32.63404 | 75.48106 | 28923 ft | 438 kts | 356° |
| 2026-04-29 11:22 | 32.66462 | 75.47977 | 28225 ft | 438 kts | 356° |
| 2026-04-29 11:22 | 32.69404 | 75.47843 | 27590 ft | 437 kts | 355° |
| 2026-04-29 11:23 | 32.72418 | 75.47531 | 27146 ft | 430 kts | 351° |
| 2026-04-29 11:23 | 32.75339 | 75.46973 | 26699 ft | 424 kts | 347° |
| 2026-04-29 11:23 | 32.78183 | 75.46183 | 26246 ft | 419 kts | 344° |
| 2026-04-29 11:23 | 32.81014 | 75.45299 | 25791 ft | 415 kts | 343° |
| 2026-04-29 11:24 | 32.83804 | 75.44411 | 25330 ft | 411 kts | 343° |
| 2026-04-29 11:24 | 32.86583 | 75.43526 | 24890 ft | 409 kts | 343° |
| 2026-04-29 11:24 | 32.89299 | 75.42660 | 24451 ft | 406 kts | 343° |
| 2026-04-29 11:24 | 32.91973 | 75.41809 | 24002 ft | 403 kts | 343° |
| 2026-04-29 11:25 | 32.94671 | 75.40951 | 23550 ft | 400 kts | 343° |
| 2026-04-29 11:25 | 32.97358 | 75.40097 | 23084 ft | 397 kts | 343° |
| 2026-04-29 11:25 | 33.00004 | 75.39256 | 22627 ft | 394 kts | 343° |
| 2026-04-29 11:25 | 33.02644 | 75.38416 | 22178 ft | 391 kts | 343° |
| 2026-04-29 11:26 | 33.07917 | 75.36735 | 21243 ft | 390 kts | 343° |
| 2026-04-29 11:26 | 33.10533 | 75.35902 | 20772 ft | 387 kts | 343° |
| 2026-04-29 11:26 | 33.13132 | 75.35078 | 20343 ft | 384 kts | 343° |
| 2026-04-29 11:27 | 33.15693 | 75.34259 | 19916 ft | 381 kts | 342° |
| 2026-04-29 11:27 | 33.18235 | 75.33436 | 19485 ft | 378 kts | 342° |
| 2026-04-29 11:27 | 33.20797 | 75.32610 | 19020 ft | 376 kts | 342° |
| 2026-04-29 11:27 | 33.23302 | 75.31804 | 18558 ft | 375 kts | 342° |
| 2026-04-29 11:28 | 33.25834 | 75.30990 | 18106 ft | 373 kts | 342° |
| 2026-04-29 11:28 | 33.28324 | 75.30191 | 17654 ft | 366 kts | 342° |
| 2026-04-29 11:28 | 33.30777 | 75.29407 | 17225 ft | 359 kts | 342° |
| 2026-04-29 11:28 | 33.33186 | 75.28632 | 16774 ft | 354 kts | 343° |
| 2026-04-29 11:29 | 33.35535 | 75.27879 | 16349 ft | 351 kts | 343° |
| 2026-04-29 11:29 | 33.37909 | 75.27114 | 15895 ft | 348 kts | 343° |
| 2026-04-29 11:29 | 33.40232 | 75.26368 | 15454 ft | 346 kts | 343° |
| 2026-04-29 11:29 | 33.42527 | 75.25631 | 15031 ft | 341 kts | 343° |
| 2026-04-29 11:30 | 33.44832 | 75.24890 | 14580 ft | 339 kts | 343° |
| 2026-04-29 11:30 | 33.47107 | 75.24158 | 14172 ft | 337 kts | 343° |
| 2026-04-29 11:30 | 33.49299 | 75.23249 | 13774 ft | 334 kts | 334° |
| 2026-04-29 11:30 | 33.51365 | 75.21950 | 13367 ft | 332 kts | 326° |
| 2026-04-29 11:31 | 33.53254 | 75.20370 | 12941 ft | 330 kts | 322° |
| 2026-04-29 11:31 | 33.55073 | 75.18733 | 12487 ft | 330 kts | 322° |
| 2026-04-29 11:31 | 33.56898 | 75.17074 | 12054 ft | 327 kts | 322° |
| 2026-04-29 11:31 | 33.58728 | 75.15413 | 11648 ft | 325 kts | 322° |
| 2026-04-29 11:32 | 33.60523 | 75.13789 | 11235 ft | 324 kts | 323° |
| 2026-04-29 11:32 | 33.62322 | 75.12166 | 10809 ft | 322 kts | 323° |
| 2026-04-29 11:32 | 33.64102 | 75.10560 | 10436 ft | 317 kts | 323° |
| 2026-04-29 11:32 | 33.65801 | 75.09029 | 10337 ft | 293 kts | 323° |
| 2026-04-29 11:33 | 33.67414 | 75.07574 | 10258 ft | 287 kts | 323° |
| 2026-04-29 11:33 | 33.69018 | 75.06130 | 10185 ft | 285 kts | 323° |
| 2026-04-29 11:33 | 33.70612 | 75.04691 | 10019 ft | 287 kts | 323° |
| 2026-04-29 11:33 | 33.72206 | 75.03252 | 9664 ft | 285 kts | 323° |
| 2026-04-29 11:34 | 33.73785 | 75.01825 | 9328 ft | 282 kts | 323° |
| 2026-04-29 11:34 | 33.75332 | 75.00427 | 9012 ft | 272 kts | 324° |
| 2026-04-29 11:34 | 33.76837 | 74.99067 | 8736 ft | 274 kts | 324° |
| 2026-04-29 11:34 | 33.78366 | 74.97686 | 8456 ft | 275 kts | 324° |
| 2026-04-29 11:35 | 33.79895 | 74.96302 | 8388 ft | 273 kts | 324° |
| 2026-04-29 11:35 | 33.81414 | 74.94926 | 8349 ft | 275 kts | 324° |
| 2026-04-29 11:35 | 33.82966 | 74.93522 | 8305 ft | 274 kts | 324° |
| 2026-04-29 11:35 | 33.84432 | 74.92192 | 8214 ft | 254 kts | 324° |
| 2026-04-29 11:36 | 33.85884 | 74.91099 | 8141 ft | 234 kts | 335° |
| 2026-04-29 11:36 | 33.87297 | 74.90203 | 8089 ft | 227 kts | 329° |
| 2026-04-29 11:36 | 33.88549 | 74.89123 | 7955 ft | 211 kts | 321° |
| 2026-04-29 11:36 | 33.89609 | 74.88001 | 7728 ft | 200 kts | 318° |
| 2026-04-29 11:37 | 33.90588 | 74.86865 | 7454 ft | 190 kts | 316° |
| 2026-04-29 11:37 | 33.91513 | 74.85768 | 7162 ft | 180 kts | 317° |
| 2026-04-29 11:37 | 33.92382 | 74.84745 | 6902 ft | 172 kts | 317° |
| 2026-04-29 11:37 | 33.93238 | 74.83748 | 6681 ft | 172 kts | 318° |
| 2026-04-29 11:38 | 33.94124 | 74.82739 | 6453 ft | 173 kts | 318° |
| 2026-04-29 11:38 | 33.94985 | 74.81751 | 6195 ft | 172 kts | 316° |
| 2026-04-29 11:38 | 33.95831 | 74.80735 | 5949 ft | 172 kts | 315° |
| 2026-04-29 11:38 | 33.96679 | 74.79726 | 5711 ft | 171 kts | 318° |
| 2026-04-29 11:39 | 33.97544 | 74.78742 | 5500 ft | 169 kts | 317° |
| 2026-04-29 11:39 | 33.98318 | 74.77859 | 5452 ft | 117 kts | 318° |
| 2026-04-29 11:39 | 33.98691 | 74.77428 | 5442 ft | 35 kts | 316° |
| 2026-04-29 11:39 | 33.98862 | 74.77221 | 5437 ft | 35 kts | 316° |
| 2026-04-29 11:40 | 33.99028 | 74.77036 | 5433 ft | 24 kts | 317° |
| 2026-04-29 11:40 | 33.99139 | 74.76909 | 5429 ft | 22 kts | 314° |
| 2026-04-29 11:40 | 33.99251 | 74.76772 | 5426 ft | 23 kts | 315° |
| 2026-04-29 11:40 | 33.99367 | 74.76637 | 5424 ft | 22 kts | 313° |
| 2026-04-29 11:41 | 33.99477 | 74.76501 | 5422 ft | 22 kts | 315° |
| 2026-04-29 11:41 | 33.99592 | 74.76367 | 5420 ft | 22 kts | 317° |
| 2026-04-29 11:41 | 33.99708 | 74.76241 | 5421 ft | 21 kts | 319° |
| 2026-04-29 11:41 | 33.99821 | 74.76148 | 5421 ft | 19 kts | 355° |
| 2026-04-29 11:42 | 33.99895 | 74.76160 | 5420 ft | 3 kts | 14° |
| 2026-04-29 11:42 | 33.99929 | 74.76170 | 5419 ft | 6 kts | 14° |
| 2026-04-29 11:42 | 33.99954 | 74.76177 | 5418 ft | 0 kts | 14° |
| 2026-04-29 11:43 | 33.99959 | 74.76179 | 5418 ft | 0 kts | 14° |
| 2026-04-29 11:43 | 33.99960 | 74.76179 | 5418 ft | 0 kts | 14° |
| 2026-04-29 11:45 | 33.99976 | 74.76180 | 5417 ft | 4 kts | 350° |
| 2026-04-29 11:45 | 34.00010 | 74.76160 | 5417 ft | 6 kts | 331° |
| 2026-04-29 11:46 | 34.00063 | 74.76131 | 5414 ft | 8 kts | 355° |
| 2026-04-29 11:46 | 34.00098 | 74.76150 | 5412 ft | 4 kts | 36° |
| 2026-04-29 11:46 | 34.00108 | 74.76159 | 5411 ft | 0 kts | 38° |
| 2026-04-29 11:51 | 34.00108 | 74.76160 | 5411 ft | 0 kts | 38° |